sensor_id;sensor_type;location;lat;lon;timestamp;pressure;altitude;pressure_sealevel;temperature;humidity
61035;BME280;46916;40.564;-7.958;2023-11-21T00:01:23;98039.97;;;12.68;100.00
61035;BME280;46916;40.564;-7.958;2023-11-21T00:03:24;98037.47;;;12.66;100.00
61035;BME280;46916;40.564;-7.958;2023-11-21T00:05:24;98040.94;;;12.67;100.00
61035;BME280;46916;40.564;-7.958;2023-11-21T00:07:25;98035.78;;;12.65;100.00
61035;BME280;46916;40.564;-7.958;2023-11-21T00:09:26;98031.06;;;12.59;100.00
61035;BME280;46916;40.564;-7.958;2023-11-21T00:11:27;98035.50;;;12.58;100.00
61035;BME280;46916;40.564;-7.958;2023-11-21T00:13:27;98036.19;;;12.60;100.00
61035;BME280;46916;40.564;-7.958;2023-11-21T00:15:28;98039.91;;;12.58;100.00
61035;BME280;46916;40.564;-7.958;2023-11-21T00:17:29;98038.22;;;12.57;100.00
61035;BME280;46916;40.564;-7.958;2023-11-21T00:19:30;98044.59;;;12.54;100.00
61035;BME280;46916;40.564;-7.958;2023-11-21T00:21:30;98039.56;;;12.51;100.00
61035;BME280;46916;40.564;-7.958;2023-11-21T00:23:31;98039.44;;;12.53;100.00
61035;BME280;46916;40.564;-7.958;2023-11-21T00:25:32;98037.66;;;12.53;100.00
61035;BME280;46916;40.564;-7.958;2023-11-21T00:27:33;98037.66;;;12.53;100.00
61035;BME280;46916;40.564;-7.958;2023-11-21T00:29:35;98043.88;;;12.52;100.00
61035;BME280;46916;40.564;-7.958;2023-11-21T00:31:36;98042.06;;;12.53;100.00
61035;BME280;46916;40.564;-7.958;2023-11-21T00:33:37;98045.28;;;12.56;100.00
61035;BME280;46916;40.564;-7.958;2023-11-21T00:35:38;98047.91;;;12.56;100.00
61035;BME280;46916;40.564;-7.958;2023-11-21T00:37:38;98051.94;;;12.60;100.00
61035;BME280;46916;40.564;-7.958;2023-11-21T00:39:40;98047.53;;;12.61;100.00
61035;BME280;46916;40.564;-7.958;2023-11-21T00:41:41;98042.16;;;12.62;100.00
61035;BME280;46916;40.564;-7.958;2023-11-21T00:43:42;98042.16;;;12.62;100.00
61035;BME280;46916;40.564;-7.958;2023-11-21T00:45:44;98044.78;;;12.62;100.00
61035;BME280;46916;40.564;-7.958;2023-11-21T00:47:47;98044.19;;;12.59;100.00
61035;BME280;46916;40.564;-7.958;2023-11-21T00:49:47;98046.50;;;12.52;100.00
61035;BME280;46916;40.564;-7.958;2023-11-21T00:51:49;98045.91;;;12.49;100.00
61035;BME280;46916;40.564;-7.958;2023-11-21T00:53:50;98044.38;;;12.46;100.00
61035;BME280;46916;40.564;-7.958;2023-11-21T00:55:51;98039.97;;;12.47;100.00
61035;BME280;46916;40.564;-7.958;2023-11-21T00:57:57;98041.88;;;12.45;100.00
61035;BME280;46916;40.564;-7.958;2023-11-21T00:59:59;98028.88;;;12.43;100.00
61035;BME280;46916;40.564;-7.958;2023-11-21T01:02:01;98028.88;;;12.43;100.00
61035;BME280;46916;40.564;-7.958;2023-11-21T01:04:02;98035.09;;;12.42;100.00
61035;BME280;46916;40.564;-7.958;2023-11-21T01:06:03;98025.56;;;12.41;100.00
61035;BME280;46916;40.564;-7.958;2023-11-21T01:08:05;98033.44;;;12.41;100.00
61035;BME280;46916;40.564;-7.958;2023-11-21T01:10:06;98029.13;;;12.40;100.00
61035;BME280;46916;40.564;-7.958;2023-11-21T01:12:08;98029.13;;;12.40;100.00
61035;BME280;46916;40.564;-7.958;2023-11-21T01:14:09;98029.25;;;12.38;100.00
61035;BME280;46916;40.564;-7.958;2023-11-21T01:16:11;98022.44;;;12.36;100.00
61035;BME280;46916;40.564;-7.958;2023-11-21T01:18:12;98029.63;;;12.34;100.00
61035;BME280;46916;40.564;-7.958;2023-11-21T01:20:14;98019.22;;;12.32;100.00
61035;BME280;46916;40.564;-7.958;2023-11-21T01:22:14;98022.81;;;12.31;100.00
61035;BME280;46916;40.564;-7.958;2023-11-21T01:24:16;98022.97;;;12.30;100.00
61035;BME280;46916;40.564;-7.958;2023-11-21T01:26:17;98009.84;;;12.30;100.00
61035;BME280;46916;40.564;-7.958;2023-11-21T01:28:18;98018.69;;;12.29;100.00
61035;BME280;46916;40.564;-7.958;2023-11-21T01:30:19;98022.97;;;12.30;100.00
61035;BME280;46916;40.564;-7.958;2023-11-21T01:32:20;98029.19;;;12.29;100.00
61035;BME280;46916;40.564;-7.958;2023-11-21T01:34:21;98023.06;;;12.28;100.00
61035;BME280;46916;40.564;-7.958;2023-11-21T01:36:22;98030.41;;;12.25;100.00
61035;BME280;46916;40.564;-7.958;2023-11-21T01:38:22;98031.94;;;12.16;100.00
61035;BME280;46916;40.564;-7.958;2023-11-21T01:40:23;98021.50;;;12.05;100.00
61035;BME280;46916;40.564;-7.958;2023-11-21T01:42:25;98029.88;;;11.99;100.00
61035;BME280;46916;40.564;-7.958;2023-11-21T01:44:25;98031.22;;;11.93;100.00
61035;BME280;46916;40.564;-7.958;2023-11-21T01:46:26;98027.16;;;11.89;100.00
61035;BME280;46916;40.564;-7.958;2023-11-21T01:48:27;98032.66;;;11.86;100.00
61035;BME280;46916;40.564;-7.958;2023-11-21T01:50:29;98033.38;;;11.88;100.00
61035;BME280;46916;40.564;-7.958;2023-11-21T01:52:30;98034.22;;;11.88;100.00
61035;BME280;46916;40.564;-7.958;2023-11-21T01:54:31;98042.09;;;11.88;100.00
61035;BME280;46916;40.564;-7.958;2023-11-21T01:56:32;98044.81;;;11.87;100.00
61035;BME280;46916;40.564;-7.958;2023-11-21T01:58:33;98033.13;;;11.80;100.00
61035;BME280;46916;40.564;-7.958;2023-11-21T02:00:34;98028.34;;;11.74;100.00
61035;BME280;46916;40.564;-7.958;2023-11-21T02:02:35;98044.09;;;11.74;100.00
61035;BME280;46916;40.564;-7.958;2023-11-21T02:04:36;98043.50;;;11.70;100.00
61035;BME280;46916;40.564;-7.958;2023-11-21T02:06:37;98042.59;;;11.60;100.00
61035;BME280;46916;40.564;-7.958;2023-11-21T02:08:39;98041.75;;;11.59;100.00
61035;BME280;46916;40.564;-7.958;2023-11-21T02:10:40;98040.41;;;11.54;100.00
61035;BME280;46916;40.564;-7.958;2023-11-21T02:12:41;98033.88;;;11.48;100.00
61035;BME280;46916;40.564;-7.958;2023-11-21T02:14:42;98031.63;;;11.44;100.00
61035;BME280;46916;40.564;-7.958;2023-11-21T02:16:43;98035.53;;;11.38;100.00
61035;BME280;46916;40.564;-7.958;2023-11-21T02:18:51;98029.13;;;11.31;100.00
61035;BME280;46916;40.564;-7.958;2023-11-21T02:20:52;98038.19;;;11.27;100.00
61035;BME280;46916;40.564;-7.958;2023-11-21T02:22:54;98045.31;;;11.25;100.00
61035;BME280;46916;40.564;-7.958;2023-11-21T02:24:58;98045.56;;;11.22;100.00
61035;BME280;46916;40.564;-7.958;2023-11-21T02:26:59;98040.31;;;11.22;100.00
61035;BME280;46916;40.564;-7.958;2023-11-21T02:29:00;98041.13;;;11.22;100.00
61035;BME280;46916;40.564;-7.958;2023-11-21T02:31:01;98043.75;;;11.22;100.00
61035;BME280;46916;40.564;-7.958;2023-11-21T02:33:04;98042.09;;;11.21;100.00
61035;BME280;46916;40.564;-7.958;2023-11-21T02:35:06;98055.56;;;11.16;100.00
61035;BME280;46916;40.564;-7.958;2023-11-21T02:37:08;98054.97;;;11.13;100.00
61035;BME280;46916;40.564;-7.958;2023-11-21T02:39:09;98058.78;;;11.09;100.00
61035;BME280;46916;40.564;-7.958;2023-11-21T02:41:10;98060.69;;;11.07;100.00
61035;BME280;46916;40.564;-7.958;2023-11-21T02:43:11;98061.97;;;11.01;100.00
61035;BME280;46916;40.564;-7.958;2023-11-21T02:45:13;98061.28;;;10.99;100.00
61035;BME280;46916;40.564;-7.958;2023-11-21T02:47:14;98062.69;;;10.92;100.00
61035;BME280;46916;40.564;-7.958;2023-11-21T02:49:15;98062.09;;;10.88;100.00
61035;BME280;46916;40.564;-7.958;2023-11-21T02:51:16;98058.63;;;10.88;100.00
61035;BME280;46916;40.564;-7.958;2023-11-21T02:53:16;98061.47;;;10.85;100.00
61035;BME280;46916;40.564;-7.958;2023-11-21T02:55:17;98063.25;;;10.84;100.00
61035;BME280;46916;40.564;-7.958;2023-11-21T02:57:17;98069.47;;;10.83;100.00
61035;BME280;46916;40.564;-7.958;2023-11-21T02:59:19;98067.81;;;10.82;100.00
61035;BME280;46916;40.564;-7.958;2023-11-21T03:01:19;98061.72;;;10.82;100.00
61035;BME280;46916;40.564;-7.958;2023-11-21T03:03:20;98057.31;;;10.82;100.00
61035;BME280;46916;40.564;-7.958;2023-11-21T03:05:21;98061.13;;;10.89;100.00
61035;BME280;46916;40.564;-7.958;2023-11-21T03:07:21;98060.81;;;10.94;100.00
61035;BME280;46916;40.564;-7.958;2023-11-21T03:09:22;98070.81;;;11.00;100.00
61035;BME280;46916;40.564;-7.958;2023-11-21T03:11:23;98067.97;;;11.03;100.00
61035;BME280;46916;40.564;-7.958;2023-11-21T03:13:23;98064.72;;;11.00;100.00
61035;BME280;46916;40.564;-7.958;2023-11-21T03:15:24;98069.97;;;11.00;100.00
61035;BME280;46916;40.564;-7.958;2023-11-21T03:17:25;98067.97;;;11.03;100.00
61035;BME280;46916;40.564;-7.958;2023-11-21T03:19:25;98075.09;;;11.01;100.00
61035;BME280;46916;40.564;-7.958;2023-11-21T03:21:26;98080.31;;;11.01;100.00
61035;BME280;46916;40.564;-7.958;2023-11-21T03:23:26;98069.25;;;10.98;100.00
61035;BME280;46916;40.564;-7.958;2023-11-21T03:25:27;98066.75;;;10.96;100.00
61035;BME280;46916;40.564;-7.958;2023-11-21T03:27:28;98074.47;;;10.98;100.00
61035;BME280;46916;40.564;-7.958;2023-11-21T03:29:28;98066.63;;;10.98;100.00
61035;BME280;46916;40.564;-7.958;2023-11-21T03:31:29;98071.63;;;11.01;100.00
61035;BME280;46916;40.564;-7.958;2023-11-21T03:33:30;98074.03;;;11.04;100.00
61035;BME280;46916;40.564;-7.958;2023-11-21T03:35:30;98068.91;;;11.02;100.00
61035;BME280;46916;40.564;-7.958;2023-11-21T03:37:31;98066.53;;;10.99;99.92
61035;BME280;46916;40.564;-7.958;2023-11-21T03:39:32;98062.47;;;10.95;99.31
61035;BME280;46916;40.564;-7.958;2023-11-21T03:41:33;98062.69;;;10.92;99.14
61035;BME280;46916;40.564;-7.958;2023-11-21T03:43:34;98050.53;;;10.91;98.66
61035;BME280;46916;40.564;-7.958;2023-11-21T03:45:34;98048.28;;;10.86;98.27
61035;BME280;46916;40.564;-7.958;2023-11-21T03:47:35;98049.56;;;10.81;98.08
61035;BME280;46916;40.564;-7.958;2023-11-21T03:49:36;98046.59;;;10.74;98.28
61035;BME280;46916;40.564;-7.958;2023-11-21T03:51:36;98053.09;;;10.69;98.28
61035;BME280;46916;40.564;-7.958;2023-11-21T03:53:38;98043.34;;;10.71;98.27
61035;BME280;46916;40.564;-7.958;2023-11-21T03:55:38;98040.59;;;10.72;97.64
61035;BME280;46916;40.564;-7.958;2023-11-21T03:57:39;98047.88;;;10.69;97.45
61035;BME280;46916;40.564;-7.958;2023-11-21T03:59:40;98044.97;;;10.60;97.44
61035;BME280;46916;40.564;-7.958;2023-11-21T04:01:41;98045.94;;;10.59;97.19
61035;BME280;46916;40.564;-7.958;2023-11-21T04:03:42;98043.81;;;10.64;96.87
61035;BME280;46916;40.564;-7.958;2023-11-21T04:05:42;98051.22;;;10.71;96.39
61035;BME280;46916;40.564;-7.958;2023-11-21T04:07:43;98059.69;;;10.74;95.95
61035;BME280;46916;40.564;-7.958;2023-11-21T04:09:43;98055.06;;;10.78;95.56
61035;BME280;46916;40.564;-7.958;2023-11-21T04:11:44;98052.44;;;10.78;95.74
61035;BME280;46916;40.564;-7.958;2023-11-21T04:13:46;98046.47;;;10.76;96.44
61035;BME280;46916;40.564;-7.958;2023-11-21T04:15:47;98042.88;;;10.77;96.58
61035;BME280;46916;40.564;-7.958;2023-11-21T04:17:47;98045.50;;;10.77;96.75
61035;BME280;46916;40.564;-7.958;2023-11-21T04:19:48;98043.63;;;10.79;96.09
61035;BME280;46916;40.564;-7.958;2023-11-21T04:21:49;98040.25;;;10.77;94.06
61035;BME280;46916;40.564;-7.958;2023-11-21T04:23:49;98042.53;;;10.70;90.22
61035;BME280;46916;40.564;-7.958;2023-11-21T04:25:50;98030.72;;;10.64;89.52
61035;BME280;46916;40.564;-7.958;2023-11-21T04:27:52;98035.94;;;10.64;89.73
61035;BME280;46916;40.564;-7.958;2023-11-21T04:29:53;98040.25;;;10.65;90.82
61035;BME280;46916;40.564;-7.958;2023-11-21T04:31:54;98041.91;;;10.66;90.62
61035;BME280;46916;40.564;-7.958;2023-11-21T04:33:54;98036.91;;;10.63;88.51
61035;BME280;46916;40.564;-7.958;2023-11-21T04:35:55;98034.84;;;10.56;87.29
61035;BME280;46916;40.564;-7.958;2023-11-21T04:37:56;98038.03;;;10.48;85.30
61035;BME280;46916;40.564;-7.958;2023-11-21T04:39:57;98037.44;;;10.45;84.08
61035;BME280;46916;40.564;-7.958;2023-11-21T04:41:58;98049.94;;;10.41;83.47
61035;BME280;46916;40.564;-7.958;2023-11-21T04:43:58;98035.41;;;10.37;83.77
61035;BME280;46916;40.564;-7.958;2023-11-21T04:46:00;98042.91;;;10.41;84.71
61035;BME280;46916;40.564;-7.958;2023-11-21T04:48:02;98042.91;;;10.41;85.19
61035;BME280;46916;40.564;-7.958;2023-11-21T04:50:04;98047.06;;;10.33;85.52
61035;BME280;46916;40.564;-7.958;2023-11-21T04:52:06;98039.41;;;10.30;86.25
61035;BME280;46916;40.564;-7.958;2023-11-21T04:54:07;98055.53;;;10.24;86.37
61035;BME280;46916;40.564;-7.958;2023-11-21T04:56:08;98058.28;;;10.22;85.99
61035;BME280;46916;40.564;-7.958;2023-11-21T04:58:09;98056.69;;;10.20;85.39
61035;BME280;46916;40.564;-7.958;2023-11-21T05:00:10;98063.00;;;10.17;84.94
61035;BME280;46916;40.564;-7.958;2023-11-21T05:02:10;98058.72;;;10.16;84.97
61035;BME280;46916;40.564;-7.958;2023-11-21T05:04:12;98058.63;;;10.17;83.95
61035;BME280;46916;40.564;-7.958;2023-11-21T05:06:15;98061.94;;;10.20;83.82
61035;BME280;46916;40.564;-7.958;2023-11-21T05:08:15;98061.00;;;10.21;82.75
61035;BME280;46916;40.564;-7.958;2023-11-21T05:10:16;98070.63;;;10.20;81.55
61035;BME280;46916;40.564;-7.958;2023-11-21T05:12:16;98062.91;;;10.18;81.16
61035;BME280;46916;40.564;-7.958;2023-11-21T05:14:17;98070.63;;;10.20;80.73
61035;BME280;46916;40.564;-7.958;2023-11-21T05:16:19;98078.38;;;10.22;80.49
61035;BME280;46916;40.564;-7.958;2023-11-21T05:18:20;98074.09;;;10.21;80.51
61035;BME280;46916;40.564;-7.958;2023-11-21T05:20:21;98078.47;;;10.20;79.88
61035;BME280;46916;40.564;-7.958;2023-11-21T05:22:21;98075.50;;;10.13;79.63
61035;BME280;46916;40.564;-7.958;2023-11-21T05:24:22;98085.00;;;10.14;80.08
61035;BME280;46916;40.564;-7.958;2023-11-21T05:26:23;98076.44;;;10.12;79.95
61035;BME280;46916;40.564;-7.958;2023-11-21T05:28:23;98082.59;;;10.11;80.07
61035;BME280;46916;40.564;-7.958;2023-11-21T05:30:24;98078.94;;;10.14;79.92
61035;BME280;46916;40.564;-7.958;2023-11-21T05:32:25;98082.50;;;10.13;80.46
61035;BME280;46916;40.564;-7.958;2023-11-21T05:34:26;98080.72;;;10.13;80.45
61035;BME280;46916;40.564;-7.958;2023-11-21T05:36:26;98069.41;;;10.13;80.22
61035;BME280;46916;40.564;-7.958;2023-11-21T05:38:27;98078.81;;;10.15;80.39
61035;BME280;46916;40.564;-7.958;2023-11-21T05:40:28;98078.72;;;10.17;80.80
61035;BME280;46916;40.564;-7.958;2023-11-21T05:42:30;98079.34;;;10.21;80.19
61035;BME280;46916;40.564;-7.958;2023-11-21T05:44:31;98080.25;;;10.20;79.07
61035;BME280;46916;40.564;-7.958;2023-11-21T05:46:31;98078.47;;;10.20;79.31
61035;BME280;46916;40.564;-7.958;2023-11-21T05:48:32;98083.00;;;10.18;78.39
61035;BME280;46916;40.564;-7.958;2023-11-21T05:50:33;98091.47;;;10.22;75.41
61035;BME280;46916;40.564;-7.958;2023-11-21T05:52:33;98095.03;;;10.21;76.65
61035;BME280;46916;40.564;-7.958;2023-11-21T05:54:34;98092.19;;;10.24;76.32
61035;BME280;46916;40.564;-7.958;2023-11-21T05:56:35;98100.03;;;10.24;76.41
61035;BME280;46916;40.564;-7.958;2023-11-21T05:58:35;98099.31;;;10.22;76.67
61035;BME280;46916;40.564;-7.958;2023-11-21T06:00:36;98101.81;;;10.23;76.97
61035;BME280;46916;40.564;-7.958;2023-11-21T06:02:38;98095.56;;;10.26;77.26
61035;BME280;46916;40.564;-7.958;2023-11-21T06:04:39;98095.34;;;10.29;77.71
61035;BME280;46916;40.564;-7.958;2023-11-21T06:06:39;98096.06;;;10.31;77.60
61035;BME280;46916;40.564;-7.958;2023-11-21T06:08:40;98097.72;;;10.32;77.46
61035;BME280;46916;40.564;-7.958;2023-11-21T06:10:40;98091.03;;;10.28;77.37
61035;BME280;46916;40.564;-7.958;2023-11-21T06:12:41;98089.50;;;10.25;77.32
61035;BME280;46916;40.564;-7.958;2023-11-21T06:14:43;98090.63;;;10.21;77.13
61035;BME280;46916;40.564;-7.958;2023-11-21T06:16:43;98089.06;;;10.18;76.82
61035;BME280;46916;40.564;-7.958;2023-11-21T06:18:45;98095.25;;;10.17;77.12
61035;BME280;46916;40.564;-7.958;2023-11-21T06:20:46;98094.44;;;10.17;76.19
61035;BME280;46916;40.564;-7.958;2023-11-21T06:22:48;98102.50;;;10.14;76.91
61035;BME280;46916;40.564;-7.958;2023-11-21T06:24:50;98098.72;;;10.18;77.14
61035;BME280;46916;40.564;-7.958;2023-11-21T06:26:51;98110.50;;;10.24;77.34
61035;BME280;46916;40.564;-7.958;2023-11-21T06:28:51;98109.63;;;10.25;77.40
61035;BME280;46916;40.564;-7.958;2023-11-21T06:30:53;98105.81;;;10.29;77.31
61035;BME280;46916;40.564;-7.958;2023-11-21T06:32:53;98105.38;;;10.35;77.00
61035;BME280;46916;40.564;-7.958;2023-11-21T06:34:55;98101.78;;;10.36;76.92
61035;BME280;46916;40.564;-7.958;2023-11-21T06:36:56;98104.19;;;10.39;76.59
61035;BME280;46916;40.564;-7.958;2023-11-21T06:38:57;98106.59;;;10.42;76.78
61035;BME280;46916;40.564;-7.958;2023-11-21T06:40:57;98109.00;;;10.45;76.63
61035;BME280;46916;40.564;-7.958;2023-11-21T06:42:58;98114.72;;;10.50;76.38
61035;BME280;46916;40.564;-7.958;2023-11-21T06:44:59;98109.38;;;10.52;76.24
61035;BME280;46916;40.564;-7.958;2023-11-21T06:47:04;98115.22;;;10.55;76.18
61035;BME280;46916;40.564;-7.958;2023-11-21T06:49:05;98116.06;;;10.56;75.95
61035;BME280;46916;40.564;-7.958;2023-11-21T06:51:06;98122.84;;;10.58;75.78
61035;BME280;46916;40.564;-7.958;2023-11-21T06:53:07;98123.69;;;10.59;76.01
61035;BME280;46916;40.564;-7.958;2023-11-21T06:55:10;98127.97;;;10.60;75.44
61035;BME280;46916;40.564;-7.958;2023-11-21T06:57:11;98131.69;;;10.57;75.88
61035;BME280;46916;40.564;-7.958;2023-11-21T06:59:12;98126.53;;;10.56;76.35
61035;BME280;46916;40.564;-7.958;2023-11-21T07:01:13;98129.28;;;10.54;76.27
61035;BME280;46916;40.564;-7.958;2023-11-21T07:03:14;98130.22;;;10.53;75.93
61035;BME280;46916;40.564;-7.958;2023-11-21T07:05:15;98129.38;;;10.53;75.97
61035;BME280;46916;40.564;-7.958;2023-11-21T07:07:15;98137.34;;;10.51;76.08
61035;BME280;46916;40.564;-7.958;2023-11-21T07:09:17;98138.38;;;10.49;76.15
61035;BME280;46916;40.564;-7.958;2023-11-21T07:11:18;98140.09;;;10.50;76.40
61035;BME280;46916;40.564;-7.958;2023-11-21T07:13:18;98142.72;;;10.50;76.25
61035;BME280;46916;40.564;-7.958;2023-11-21T07:15:19;98151.41;;;10.50;75.81
61035;BME280;46916;40.564;-7.958;2023-11-21T07:17:19;98150.56;;;10.50;76.32
61035;BME280;46916;40.564;-7.958;2023-11-21T07:19:20;98153.28;;;10.48;76.22
61035;BME280;46916;40.564;-7.958;2023-11-21T07:21:22;98152.44;;;10.48;76.11
61035;BME280;46916;40.564;-7.958;2023-11-21T07:23:22;98155.28;;;10.45;76.29
61035;BME280;46916;40.564;-7.958;2023-11-21T07:25:23;98157.31;;;10.41;76.44
61035;BME280;46916;40.564;-7.958;2023-11-21T07:27:23;98148.72;;;10.39;76.22
61035;BME280;46916;40.564;-7.958;2023-11-21T07:29:24;98158.56;;;10.35;76.45
61035;BME280;46916;40.564;-7.958;2023-11-21T07:31:30;98164.00;;;10.32;76.66
61035;BME280;46916;40.564;-7.958;2023-11-21T07:33:31;98163.44;;;10.29;76.34
61035;BME280;46916;40.564;-7.958;2023-11-21T07:35:32;98168.75;;;10.27;76.33
61035;BME280;46916;40.564;-7.958;2023-11-21T07:37:33;98169.59;;;10.28;76.38
61035;BME280;46916;40.564;-7.958;2023-11-21T07:39:34;98170.13;;;10.33;76.07
61035;BME280;46916;40.564;-7.958;2023-11-21T07:41:35;98162.00;;;10.36;75.74
61035;BME280;46916;40.564;-7.958;2023-11-21T07:43:35;98169.00;;;10.48;75.58
61035;BME280;46916;40.564;-7.958;2023-11-21T07:45:36;98172.16;;;10.64;74.57
61035;BME280;46916;40.564;-7.958;2023-11-21T07:47:37;98171.53;;;10.85;73.90
61035;BME280;46916;40.564;-7.958;2023-11-21T07:49:39;98169.56;;;11.00;73.59
61035;BME280;46916;40.564;-7.958;2023-11-21T07:51:43;98170.31;;;11.13;73.08
61035;BME280;46916;40.564;-7.958;2023-11-21T07:53:44;98169.41;;;11.25;72.75
61035;BME280;46916;40.564;-7.958;2023-11-21T07:55:45;98180.88;;;11.35;72.78
61035;BME280;46916;40.564;-7.958;2023-11-21T07:57:47;98182.19;;;11.41;72.22
61035;BME280;46916;40.564;-7.958;2023-11-21T07:59:48;98191.28;;;11.48;71.78
61035;BME280;46916;40.564;-7.958;2023-11-21T08:01:48;98198.56;;;11.56;71.36
61035;BME280;46916;40.564;-7.958;2023-11-21T08:03:50;98203.94;;;11.65;71.32
61035;BME280;46916;40.564;-7.958;2023-11-21T08:05:53;98210.03;;;11.77;71.05
61035;BME280;46916;40.564;-7.958;2023-11-21T08:07:54;98216.16;;;11.89;70.83
61035;BME280;46916;40.564;-7.958;2023-11-21T08:09:54;98209.34;;;11.98;70.89
61035;BME280;46916;40.564;-7.958;2023-11-21T08:11:57;98205.16;;;12.06;70.24
61035;BME280;46916;40.564;-7.958;2023-11-21T08:13:57;98210.41;;;12.18;69.73
61035;BME280;46916;40.564;-7.958;2023-11-21T08:15:59;98206.09;;;12.28;68.82
61035;BME280;46916;40.564;-7.958;2023-11-21T08:18:03;98206.91;;;12.39;68.16
61035;BME280;46916;40.564;-7.958;2023-11-21T08:20:05;98199.97;;;12.50;67.87
61035;BME280;46916;40.564;-7.958;2023-11-21T08:22:08;98196.97;;;12.66;71.52
61035;BME280;46916;40.564;-7.958;2023-11-21T08:24:09;98208.34;;;12.87;74.58
61035;BME280;46916;40.564;-7.958;2023-11-21T08:26:11;98212.09;;;13.05;76.75
61035;BME280;46916;40.564;-7.958;2023-11-21T08:28:12;98215.72;;;13.25;75.09
61035;BME280;46916;40.564;-7.958;2023-11-21T08:30:16;98225.56;;;13.44;76.35
61035;BME280;46916;40.564;-7.958;2023-11-21T08:32:19;98225.13;;;13.60;75.49
61035;BME280;46916;40.564;-7.958;2023-11-21T08:34:21;98228.25;;;13.75;73.60
61035;BME280;46916;40.564;-7.958;2023-11-21T08:36:22;98218.47;;;13.86;72.08
61035;BME280;46916;40.564;-7.958;2023-11-21T08:38:24;98224.31;;;13.90;71.47
61035;BME280;46916;40.564;-7.958;2023-11-21T08:40:24;98218.78;;;13.93;71.35
61035;BME280;46916;40.564;-7.958;2023-11-21T08:42:25;98224.47;;;13.98;70.92
61035;BME280;46916;40.564;-7.958;2023-11-21T08:44:28;98227.38;;;13.95;67.61
61035;BME280;46916;40.564;-7.958;2023-11-21T08:46:28;98228.75;;;13.90;68.29
61035;BME280;46916;40.564;-7.958;2023-11-21T08:48:29;98220.53;;;13.83;68.13
61035;BME280;46916;40.564;-7.958;2023-11-21T08:50:30;98232.03;;;13.82;67.62
61035;BME280;46916;40.564;-7.958;2023-11-21T08:52:30;98236.41;;;13.72;67.68
61035;BME280;46916;40.564;-7.958;2023-11-21T08:54:31;98238.59;;;13.67;68.46
61035;BME280;46916;40.564;-7.958;2023-11-21T08:56:32;98236.66;;;13.69;68.51
61035;BME280;46916;40.564;-7.958;2023-11-21T08:58:32;98234.72;;;13.71;68.56
61035;BME280;46916;40.564;-7.958;2023-11-21T09:00:33;98239.22;;;13.80;67.73
61035;BME280;46916;40.564;-7.958;2023-11-21T09:02:34;98233.81;;;13.81;67.85
61035;BME280;46916;40.564;-7.958;2023-11-21T09:04:34;98245.63;;;13.87;67.92
61035;BME280;46916;40.564;-7.958;2023-11-21T09:06:35;98241.75;;;13.91;67.68
61035;BME280;46916;40.564;-7.958;2023-11-21T09:08:35;98243.06;;;13.97;67.84
61035;BME280;46916;40.564;-7.958;2023-11-21T09:10:36;98245.56;;;13.98;67.51
61035;BME280;46916;40.564;-7.958;2023-11-21T09:12:37;98242.66;;;14.01;67.78
61035;BME280;46916;40.564;-7.958;2023-11-21T09:14:38;98248.38;;;14.06;67.52
61035;BME280;46916;40.564;-7.958;2023-11-21T09:16:39;98248.53;;;14.15;67.38
61035;BME280;46916;40.564;-7.958;2023-11-21T09:18:40;98245.38;;;14.21;66.55
61035;BME280;46916;40.564;-7.958;2023-11-21T09:20:42;98252.16;;;14.13;65.11
61035;BME280;46916;40.564;-7.958;2023-11-21T09:22:44;98245.88;;;14.05;63.46
61035;BME280;46916;40.564;-7.958;2023-11-21T09:24:46;98246.53;;;13.97;65.18
61035;BME280;46916;40.564;-7.958;2023-11-21T09:26:46;98248.44;;;13.95;64.77
61035;BME280;46916;40.564;-7.958;2023-11-21T09:28:47;98253.84;;;13.94;62.72
61035;BME280;46916;40.564;-7.958;2023-11-21T09:30:48;98256.56;;;13.82;64.70
61035;BME280;46916;40.564;-7.958;2023-11-21T09:32:51;98263.47;;;13.83;63.77
61035;BME280;46916;40.564;-7.958;2023-11-21T09:34:51;98259.97;;;13.73;63.59
61035;BME280;46916;40.564;-7.958;2023-11-21T09:36:53;98256.63;;;13.71;64.42
61035;BME280;46916;40.564;-7.958;2023-11-21T09:38:54;98257.66;;;13.80;65.53
61035;BME280;46916;40.564;-7.958;2023-11-21T09:40:56;98265.34;;;13.93;65.78
61035;BME280;46916;40.564;-7.958;2023-11-21T09:42:58;98262.84;;;13.91;65.28
61035;BME280;46916;40.564;-7.958;2023-11-21T09:47:18;98267.59;;;13.97;66.26
61035;BME280;46916;40.564;-7.958;2023-11-21T09:49:23;98269.00;;;14.01;66.43
61035;BME280;46916;40.564;-7.958;2023-11-21T09:51:27;98275.97;;;14.12;66.91
61035;BME280;46916;40.564;-7.958;2023-11-21T09:53:31;98259.91;;;14.15;66.04
61035;BME280;46916;40.564;-7.958;2023-11-21T09:55:34;98266.16;;;14.14;66.55
61035;BME280;46916;40.564;-7.958;2023-11-21T09:57:39;98264.59;;;14.11;66.64
61035;BME280;46916;40.564;-7.958;2023-11-21T09:59:40;98262.69;;;14.13;67.07
61035;BME280;46916;40.564;-7.958;2023-11-21T10:01:41;98259.97;;;14.25;67.47
61035;BME280;46916;40.564;-7.958;2023-11-21T10:03:42;98256.75;;;14.21;65.71
61035;BME280;46916;40.564;-7.958;2023-11-21T10:05:44;98259.47;;;14.10;66.46
61035;BME280;46916;40.564;-7.958;2023-11-21T10:07:55;98253.56;;;14.18;67.23
61035;BME280;46916;40.564;-7.958;2023-11-21T10:10:02;98251.78;;;14.28;67.54
61035;BME280;46916;40.564;-7.958;2023-11-21T10:12:06;98257.22;;;14.36;67.60
61035;BME280;46916;40.564;-7.958;2023-11-21T10:14:12;98254.88;;;14.43;68.03
61035;BME280;46916;40.564;-7.958;2023-11-21T10:16:15;98258.16;;;14.56;68.07
61035;BME280;46916;40.564;-7.958;2023-11-21T10:18:19;98255.56;;;14.66;66.31
61035;BME280;46916;40.564;-7.958;2023-11-21T10:20:20;98260.69;;;14.67;66.05
61035;BME280;46916;40.564;-7.958;2023-11-21T10:22:21;98260.09;;;14.64;66.59
61035;BME280;46916;40.564;-7.958;2023-11-21T10:24:22;98258.47;;;14.72;67.16
61035;BME280;46916;40.564;-7.958;2023-11-21T10:26:23;98250.84;;;14.79;65.90
61035;BME280;46916;40.564;-7.958;2023-11-21T10:28:24;98256.22;;;14.68;65.69
61035;BME280;46916;40.564;-7.958;2023-11-21T10:30:28;98266.09;;;14.66;66.54
61035;BME280;46916;40.564;-7.958;2023-11-21T10:32:29;98260.09;;;14.64;66.08